Time;durP1;ratioP1;P1;durP2;ratioP2;P2;SDS_P1;SDS_P2;PMS_P1;PMS_P2;Temp;Humidity;BMP_temperature;BMP_pressure;BME280_temperature;BME280_humidity;BME280_pressure;Samples;Min_cycle;Max_cycle;Signal;HPM_P1;HPM_P2
2023/03/11 00:01:14;;;;;;;1.50;1.40;;;4.90;72.50;;;;;;4967721;28;20070;-61
2023/03/11 00:03:39;;;;;;;1.35;1.25;;;4.80;71.90;;;;;;4969033;28;20545;-60
2023/03/11 00:06:06;;;;;;;1.60;1.33;;;4.80;71.50;;;;;;4974838;28;20047;-62
2023/03/11 00:08:32;;;;;;;1.30;1.20;;;4.80;71.30;;;;;;4973529;28;20045;-60
2023/03/11 00:10:59;;;;;;;1.55;1.30;;;4.80;70.70;;;;;;4951393;28;20043;-60
2023/03/11 00:13:26;;;;;;;1.20;1.10;;;4.80;70.40;;;;;;4970033;28;20474;-62
2023/03/11 00:15:58;;;;;;;1.42;1.33;;;4.80;70.80;;;;;;4963492;28;20041;-60
2023/03/11 00:18:25;;;;;;;1.40;1.20;;;4.80;70.20;;;;;;4963834;28;20064;-64
2023/03/11 00:20:52;;;;;;;1.63;1.30;;;4.70;70.70;;;;;;4966836;28;20031;-62
2023/03/11 00:23:18;;;;;;;1.48;1.30;;;4.80;70.70;;;;;;4972898;28;20050;-60
2023/03/11 00:25:45;;;;;;;2.65;1.45;;;4.80;70.80;;;;;;4971462;28;20030;-61
2023/03/11 00:28:11;;;;;;;1.35;1.25;;;4.70;70.90;;;;;;4965663;28;20043;-61
2023/03/11 00:30:38;;;;;;;1.65;1.55;;;4.70;70.50;;;;;;4968740;28;20034;-61
2023/03/11 00:33:05;;;;;;;2.15;1.55;;;4.70;70.10;;;;;;4972536;28;20569;-61
2023/03/11 00:35:32;;;;;;;1.42;1.33;;;4.70;70.80;;;;;;4953367;28;20039;-62
2023/03/11 00:38:00;;;;;;;2.20;1.30;;;4.70;70.30;;;;;;4968015;28;20096;-61
2023/03/11 00:40:29;;;;;;;1.63;1.50;;;4.60;70.30;;;;;;4973715;28;20034;-59
2023/03/11 00:42:55;;;;;;;1.40;1.30;;;4.60;69.40;;;;;;4973568;28;20486;-60
2023/03/11 00:45:20;;;;;;;1.10;1.00;;;4.60;69.10;;;;;;4969440;28;20053;-61
2023/03/11 00:47:46;;;;;;;1.00;1.00;;;4.60;68.70;;;;;;4969528;28;20134;-60
2023/03/11 00:50:19;;;;;;;1.33;1.23;;;4.60;69.30;;;;;;4969079;28;20035;-60
2023/03/11 00:52:46;;;;;;;1.20;1.10;;;4.60;69.70;;;;;;4969892;28;20038;-58
2023/03/11 00:55:14;;;;;;;1.20;1.08;;;4.60;70.30;;;;;;4971802;28;20058;-60
2023/03/11 00:57:40;;;;;;;1.08;0.95;;;4.60;70.30;;;;;;4973932;28;20058;-62
2023/03/11 01:00:10;;;;;;;0.90;0.90;;;4.60;70.10;;;;;;4974521;28;20046;-61
2023/03/11 01:02:36;;;;;;;1.20;1.00;;;4.60;70.10;;;;;;4973200;28;20035;-62
2023/03/11 01:05:03;;;;;;;0.85;0.65;;;4.60;69.70;;;;;;4973944;28;20043;-61
2023/03/11 01:07:28;;;;;;;1.27;1.00;;;4.50;69.20;;;;;;4974257;28;20134;-61
2023/03/11 01:09:54;;;;;;;1.00;0.90;;;4.60;68.90;;;;;;4973289;28;20218;-61
2023/03/11 01:12:19;;;;;;;0.82;0.82;;;4.50;68.90;;;;;;4964240;28;20553;-60
2023/03/11 01:14:45;;;;;;;1.02;0.80;;;4.50;68.90;;;;;;4972283;28;20473;-61
2023/03/11 01:17:10;;;;;;;0.77;0.77;;;4.50;68.90;;;;;;4961745;28;20041;-63
2023/03/11 01:19:36;;;;;;;0.98;0.82;;;4.50;68.70;;;;;;4971239;28;20395;-61
2023/03/11 01:22:01;;;;;;;0.73;0.63;;;4.40;68.50;;;;;;4966045;28;20034;-62
2023/03/11 01:24:27;;;;;;;1.15;0.80;;;4.40;68.80;;;;;;4969188;28;20038;-60
2023/03/11 01:26:53;;;;;;;1.10;0.85;;;4.40;68.80;;;;;;4964244;28;20398;-60
2023/03/11 01:29:18;;;;;;;1.73;0.93;;;4.40;68.70;;;;;;4960322;28;20133;-61
2023/03/11 01:31:44;;;;;;;0.70;0.70;;;4.40;68.80;;;;;;4966587;28;20031;-60
2023/03/11 01:34:09;;;;;;;3.30;0.98;;;4.30;68.60;;;;;;4968547;28;20039;-60
2023/03/11 01:36:35;;;;;;;1.45;1.00;;;4.30;68.60;;;;;;4967942;28;20030;-61
2023/03/11 01:39:00;;;;;;;1.50;1.13;;;4.20;68.80;;;;;;4971533;28;20169;-61
2023/03/11 01:41:26;;;;;;;1.25;1.00;;;4.20;68.90;;;;;;4973888;28;20112;-59
2023/03/11 01:43:53;;;;;;;2.30;1.27;;;4.20;69.30;;;;;;4973084;28;20038;-59
2023/03/11 01:46:29;;;;;;;1.98;1.10;;;4.20;69.40;;;;;;4966168;28;20038;-61
2023/03/11 01:49:00;;;;;;;0.93;0.77;;;4.20;69.30;;;;;;4964626;28;20034;-59
2023/03/11 01:51:39;;;;;;;0.90;0.90;;;4.10;69.00;;;;;;4963444;28;20043;-61
2023/03/11 01:54:27;;;;;;;1.27;1.17;;;4.10;69.10;;;;;;4970048;28;20450;-56
2023/03/11 01:56:54;;;;;;;1.08;0.98;;;4.10;68.60;;;;;;4971588;28;20041;-62
2023/03/11 01:59:24;;;;;;;1.90;1.08;;;4.10;68.60;;;;;;4963601;28;20049;-60
2023/03/11 02:01:58;;;;;;;1.20;0.88;;;4.00;68.60;;;;;;4970641;28;20105;-61
2023/03/11 02:04:25;;;;;;;1.70;1.00;;;4.00;68.70;;;;;;4969612;28;20038;-62
2023/03/11 02:06:50;;;;;;;1.95;1.10;;;4.00;68.50;;;;;;4973714;28;20045;-62
2023/03/11 02:09:16;;;;;;;0.77;0.70;;;3.90;68.50;;;;;;4971723;28;20034;-61
2023/03/11 02:11:42;;;;;;;1.20;0.82;;;3.90;68.60;;;;;;4967901;28;20046;-61
2023/03/11 02:14:08;;;;;;;0.93;0.90;;;3.90;68.80;;;;;;4964481;28;20581;-62
2023/03/11 02:16:34;;;;;;;1.13;1.00;;;3.90;68.90;;;;;;4968211;28;20577;-59
2023/03/11 02:19:08;;;;;;;0.80;0.80;;;3.90;69.00;;;;;;4963687;28;20073;-60
2023/03/11 02:21:34;;;;;;;;;;;3.90;69.10;;;;;;4970320;28;20038;-59
2023/03/11 02:24:22;;;;;;;1.10;0.95;;;3.90;68.20;;;;;;4965938;28;20198;-58
2023/03/11 02:27:00;;;;;;;29.73;8.02;;;3.90;68.50;;;;;;4972084;28;20045;-61
2023/03/11 02:29:28;;;;;;;12.73;4.00;;;3.80;68.60;;;;;;4958029;28;20113;-60
2023/03/11 02:31:55;;;;;;;2.95;1.50;;;3.80;69.00;;;;;;4971207;28;20034;-59
2023/03/11 02:34:25;;;;;;;1.42;1.00;;;3.80;68.90;;;;;;4967702;28;20291;-60
2023/03/11 02:36:51;;;;;;;1.10;1.00;;;3.80;68.50;;;;;;4955858;28;20034;-61
2023/03/11 02:39:27;;;;;;;1.33;1.05;;;3.80;68.70;;;;;;4961964;28;20121;-60
2023/03/11 02:41:53;;;;;;;1.20;1.02;;;3.80;69.00;;;;;;4968789;28;20043;-59
2023/03/11 02:44:18;;;;;;;1.08;0.98;;;3.80;69.20;;;;;;4972136;28;20533;-59
2023/03/11 02:46:45;;;;;;;0.82;0.70;;;3.80;69.20;;;;;;4966447;28;20044;-60
2023/03/11 02:49:11;;;;;;;1.00;0.90;;;3.80;69.10;;;;;;4969759;28;20138;-60
2023/03/11 02:51:36;;;;;;;1.13;0.80;;;3.80;68.50;;;;;;4971293;28;20035;-60
2023/03/11 02:54:04;;;;;;;1.33;0.80;;;3.70;68.40;;;;;;4970433;28;20040;-60
2023/03/11 02:56:30;;;;;;;2.00;0.80;;;3.70;68.00;;;;;;4969473;28;20521;-59
2023/03/11 02:58:56;;;;;;;1.13;0.90;;;3.70;68.20;;;;;;4972189;28;20050;-60
2023/03/11 03:01:22;;;;;;;1.20;0.90;;;3.70;68.40;;;;;;4975365;28;20062;-58
2023/03/11 03:03:48;;;;;;;1.65;0.98;;;3.70;68.70;;;;;;4972952;28;20122;-60
2023/03/11 03:06:13;;;;;;;1.83;0.70;;;3.70;68.90;;;;;;4971007;28;20471;-60
2023/03/11 03:08:39;;;;;;;1.27;0.90;;;3.70;68.70;;;;;;4966801;28;20038;-60
2023/03/11 03:11:05;;;;;;;1.65;1.00;;;3.70;68.30;;;;;;4968859;28;20027;-61
2023/03/11 03:13:31;;;;;;;1.42;1.00;;;3.70;68.30;;;;;;4966244;28;20342;-61
2023/03/11 03:15:57;;;;;;;1.83;1.10;;;3.70;68.40;;;;;;4973663;28;20034;-61
2023/03/11 03:18:23;;;;;;;1.30;0.90;;;3.70;68.70;;;;;;4973231;28;20035;-58
2023/03/11 03:20:50;;;;;;;2.83;1.00;;;3.70;68.80;;;;;;4964367;28;20097;-60
2023/03/11 03:23:16;;;;;;;2.33;0.90;;;3.70;68.80;;;;;;4973672;28;20034;-60
2023/03/11 03:25:43;;;;;;;1.67;1.00;;;3.70;68.70;;;;;;4971798;28;20046;-61
2023/03/11 03:28:10;;;;;;;1.52;0.70;;;3.70;68.00;;;;;;4967896;28;20088;-58
2023/03/11 03:30:36;;;;;;;1.23;0.80;;;3.70;68.20;;;;;;4966969;28;20037;-60
2023/03/11 03:33:02;;;;;;;1.20;1.00;;;3.70;68.30;;;;;;4963932;28;20038;-56
2023/03/11 03:35:28;;;;;;;1.17;0.80;;;3.70;68.20;;;;;;4973348;28;20058;-61
2023/03/11 03:37:54;;;;;;;2.55;1.00;;;3.70;68.40;;;;;;4967020;28;20034;-62
2023/03/11 03:40:20;;;;;;;1.83;1.00;;;3.70;68.60;;;;;;4966063;28;20233;-61
2023/03/11 03:42:45;;;;;;;1.60;0.90;;;3.70;68.60;;;;;;4971103;28;20042;-61
2023/03/11 03:45:11;;;;;;;1.35;1.10;;;3.70;68.40;;;;;;4973416;28;20047;-61
2023/03/11 03:47:37;;;;;;;1.25;1.00;;;3.70;68.40;;;;;;4972324;28;20035;-59
2023/03/11 03:50:04;;;;;;;2.47;1.00;;;3.60;68.10;;;;;;4971666;28;20034;-57
2023/03/11 03:52:30;;;;;;;1.30;0.80;;;3.60;68.00;;;;;;4973779;28;20035;-59
2023/03/11 03:54:55;;;;;;;1.20;1.00;;;3.60;68.40;;;;;;4971565;28;20240;-59
2023/03/11 03:57:21;;;;;;;2.65;1.00;;;3.60;68.40;;;;;;4972196;28;20038;-62
2023/03/11 03:59:47;;;;;;;2.20;1.17;;;3.60;68.70;;;;;;4968243;28;20598;-59
2023/03/11 04:02:12;;;;;;;2.00;1.20;;;3.50;68.70;;;;;;4969745;28;20038;-61
2023/03/11 04:04:38;;;;;;;2.75;1.00;;;3.50;68.70;;;;;;4973738;28;20080;-61
2023/03/11 04:07:05;;;;;;;2.85;0.98;;;3.50;68.90;;;;;;4967490;28;20130;-60
2023/03/11 04:09:32;;;;;;;4.35;0.93;;;3.50;69.10;;;;;;4968888;28;20042;-60
2023/03/11 04:11:58;;;;;;;2.63;1.23;;;3.50;69.20;;;;;;4970404;28;20134;-60
2023/03/11 04:14:24;;;;;;;1.30;1.10;;;3.50;69.40;;;;;;4964386;28;20045;-61
2023/03/11 04:16:50;;;;;;;1.38;1.17;;;3.50;69.40;;;;;;4967385;28;20047;-60
2023/03/11 04:19:16;;;;;;;1.45;1.02;;;3.50;69.40;;;;;;4970861;28;20046;-61
2023/03/11 04:21:41;;;;;;;1.08;0.98;;;3.50;69.50;;;;;;4966114;28;20041;-62
2023/03/11 04:24:07;;;;;;;1.00;0.90;;;3.50;69.40;;;;;;4969209;28;20038;-60
2023/03/11 04:26:32;;;;;;;2.65;1.08;;;3.40;69.40;;;;;;4970145;28;20522;-61
2023/03/11 04:28:58;;;;;;;3.47;1.17;;;3.40;69.30;;;;;;4968016;28;20046;-61
2023/03/11 04:31:24;;;;;;;1.13;0.93;;;3.40;69.30;;;;;;4968986;28;20042;-60
2023/03/11 04:33:49;;;;;;;0.95;0.80;;;3.30;69.10;;;;;;4972753;28;20050;-61
2023/03/11 04:36:15;;;;;;;2.25;0.90;;;3.30;69.10;;;;;;4968712;28;20034;-60
2023/03/11 04:38:41;;;;;;;2.53;0.98;;;3.30;69.60;;;;;;4969492;28;20042;-61
2023/03/11 04:41:07;;;;;;;2.97;0.98;;;3.30;68.70;;;;;;4970721;28;20031;-60
2023/03/11 04:43:33;;;;;;;3.33;1.05;;;3.30;68.90;;;;;;4972349;28;20026;-60
2023/03/11 04:45:58;;;;;;;2.85;1.33;;;3.20;68.90;;;;;;4971528;28;20067;-61
2023/03/11 04:48:25;;;;;;;1.73;1.17;;;3.20;68.90;;;;;;4972012;28;20066;-59
2023/03/11 04:50:51;;;;;;;1.52;0.95;;;3.20;68.90;;;;;;4968584;28;20039;-60
2023/03/11 04:53:17;;;;;;;1.70;0.80;;;3.20;68.90;;;;;;4971757;28;20039;-60
2023/03/11 04:55:43;;;;;;;2.45;0.90;;;3.20;68.40;;;;;;4969598;28;20546;-60
2023/03/11 04:58:08;;;;;;;0.93;0.82;;;3.10;67.90;;;;;;4968669;28;20042;-60
2023/03/11 05:00:34;;;;;;;1.88;0.85;;;3.20;67.90;;;;;;4971168;28;20066;-60
2023/03/11 05:03:00;;;;;;;1.02;0.80;;;3.10;68.00;;;;;;4973739;28;20137;-60
2023/03/11 05:05:25;;;;;;;1.48;0.90;;;3.00;67.90;;;;;;4973008;28;20058;-61
2023/03/11 05:07:51;;;;;;;1.30;0.70;;;3.10;68.00;;;;;;4971278;28;20058;-61
2023/03/11 05:10:21;;;;;;;1.10;0.82;;;3.00;67.80;;;;;;4974762;28;20815;-60
2023/03/11 05:12:48;;;;;;;1.48;0.90;;;3.00;67.90;;;;;;4969301;28;20088;-60
2023/03/11 05:15:13;;;;;;;1.38;0.90;;;3.00;67.60;;;;;;4972581;28;20045;-61
2023/03/11 05:17:39;;;;;;;1.02;0.93;;;3.00;67.70;;;;;;4974124;28;20030;-60
2023/03/11 05:20:06;;;;;;;2.60;1.13;;;3.00;67.90;;;;;;4971871;28;20049;-58
2023/03/11 05:22:32;;;;;;;1.77;0.95;;;3.00;67.90;;;;;;4972797;28;20406;-61
2023/03/11 05:24:58;;;;;;;1.98;1.00;;;2.90;68.10;;;;;;4971105;28;20611;-59
2023/03/11 05:27:24;;;;;;;1.27;0.98;;;2.90;68.00;;;;;;4961099;28;20030;-61
2023/03/11 05:29:49;;;;;;;2.08;1.00;;;2.80;68.10;;;;;;4967133;28;20038;-60
2023/03/11 05:32:15;;;;;;;2.33;0.90;;;2.90;68.30;;;;;;4968458;28;20406;-59
2023/03/11 05:34:40;;;;;;;1.23;0.90;;;2.80;68.10;;;;;;4966160;28;20120;-60
2023/03/11 05:37:06;;;;;;;1.90;0.85;;;2.80;68.20;;;;;;4970953;28;20031;-57
2023/03/11 05:39:33;;;;;;;2.00;0.75;;;2.80;68.00;;;;;;4965179;28;20047;-59
2023/03/11 05:41:58;;;;;;;3.38;0.98;;;2.80;68.00;;;;;;4964777;28;20042;-61
2023/03/11 05:44:24;;;;;;;2.92;0.80;;;2.80;68.00;;;;;;4970644;28;20495;-59
2023/03/11 05:46:49;;;;;;;1.65;0.75;;;2.70;67.90;;;;;;4964110;28;20480;-57
2023/03/11 05:49:15;;;;;;;2.97;0.85;;;2.70;68.20;;;;;;4957711;28;20042;-61
2023/03/11 05:51:40;;;;;;;4.80;1.25;;;2.80;68.30;;;;;;4970908;28;20511;-61
2023/03/11 05:54:13;;;;;;;3.10;1.00;;;2.70;68.40;;;;;;4969240;28;20600;-60
2023/03/11 05:56:43;;;;;;;1.55;1.00;;;2.70;68.40;;;;;;4968282;28;20066;-62
2023/03/11 05:59:10;;;;;;;2.35;0.88;;;2.70;68.40;;;;;;4967837;28;20407;-62
2023/03/11 06:01:35;;;;;;;3.20;1.20;;;2.70;68.40;;;;;;4971561;28;20034;-60
2023/03/11 06:04:01;;;;;;;2.00;1.13;;;2.70;68.40;;;;;;4969373;28;20037;-61
2023/03/11 06:06:27;;;;;;;1.45;1.00;;;2.70;68.60;;;;;;4968731;28;20070;-61
2023/03/11 06:08:54;;;;;;;1.00;0.90;;;2.60;68.60;;;;;;4967511;28;20503;-61
2023/03/11 06:11:20;;;;;;;1.38;0.95;;;2.60;68.90;;;;;;4966678;28;20146;-61
2023/03/11 06:13:45;;;;;;;1.20;1.10;;;2.60;69.00;;;;;;4958657;28;20672;-60
2023/03/11 06:16:11;;;;;;;1.33;0.90;;;2.60;69.00;;;;;;4969373;28;20039;-61
2023/03/11 06:18:37;;;;;;;1.85;1.00;;;2.60;68.90;;;;;;4968249;28;20047;-62
2023/03/11 06:21:03;;;;;;;1.40;1.00;;;2.60;68.60;;;;;;4965860;28;20038;-60
2023/03/11 06:23:30;;;;;;;1.10;0.73;;;2.60;68.50;;;;;;4968818;28;20061;-60
2023/03/11 06:26:01;;;;;;;1.67;0.60;;;2.60;68.20;;;;;;4961389;28;20053;-60
2023/03/11 06:28:27;;;;;;;2.65;0.90;;;2.60;68.10;;;;;;4961983;28;20047;-58
2023/03/11 06:30:55;;;;;;;2.63;0.68;;;2.60;67.90;;;;;;4962355;28;20042;-60
2023/03/11 06:33:22;;;;;;;1.05;0.60;;;2.60;67.70;;;;;;4969371;28;20069;-60
2023/03/11 06:36:02;;;;;;;1.02;0.82;;;2.60;67.20;;;;;;4961754;28;20805;-62
2023/03/11 06:38:28;;;;;;;1.25;0.60;;;2.60;65.50;;;;;;4963131;28;20110;-60
2023/03/11 06:40:53;;;;;;;1.80;0.65;;;2.60;66.30;;;;;;4964990;28;20057;-59
2023/03/11 06:43:20;;;;;;;1.63;0.50;;;2.60;66.00;;;;;;4963556;28;20041;-58
2023/03/11 06:45:46;;;;;;;1.67;0.73;;;2.60;65.60;;;;;;4962576;28;20031;-59
2023/03/11 06:48:12;;;;;;;0.80;0.50;;;2.50;65.80;;;;;;4960376;28;20110;-61
2023/03/11 06:50:37;;;;;;;2.70;0.50;;;2.50;65.30;;;;;;4966963;28;20045;-59
2023/03/11 06:53:06;;;;;;;3.22;0.50;;;2.50;65.20;;;;;;4940474;28;20051;-61
2023/03/11 06:55:32;;;;;;;2.78;0.50;;;2.50;65.10;;;;;;4950791;28;20038;-61
2023/03/11 06:57:58;;;;;;;1.60;0.60;;;2.50;65.10;;;;;;4956735;28;20106;-62
2023/03/11 07:00:24;;;;;;;2.25;0.60;;;2.50;65.30;;;;;;4957757;28;20158;-62
2023/03/11 07:02:49;;;;;;;5.20;0.60;;;2.50;65.10;;;;;;4966880;28;20411;-60
2023/03/11 07:05:15;;;;;;;1.30;0.70;;;2.50;64.90;;;;;;4965828;28;20042;-61
2023/03/11 07:07:41;;;;;;;2.47;0.75;;;2.50;65.10;;;;;;4960078;28;20188;-62
2023/03/11 07:10:07;;;;;;;2.35;0.90;;;2.50;65.30;;;;;;4960780;28;20669;-62
2023/03/11 07:12:33;;;;;;;3.33;1.30;;;2.40;64.70;;;;;;4954043;28;20070;-62
2023/03/11 07:14:59;;;;;;;3.35;0.98;;;2.40;64.60;;;;;;4961906;28;20601;-61
2023/03/11 07:17:25;;;;;;;2.80;0.70;;;2.40;64.00;;;;;;4966606;28;20039;-62
2023/03/11 07:19:51;;;;;;;4.65;0.63;;;2.40;64.40;;;;;;4968368;28;20676;-61
2023/03/11 07:22:18;;;;;;;1.90;0.68;;;2.50;64.80;;;;;;4967337;28;20042;-61
2023/03/11 07:24:49;;;;;;;1.88;0.80;;;2.50;64.90;;;;;;4970466;28;20041;-61
2023/03/11 07:27:15;;;;;;;1.73;0.80;;;2.40;64.90;;;;;;4970101;28;20054;-62
2023/03/11 07:29:41;;;;;;;1.50;0.65;;;2.50;64.80;;;;;;4966334;28;20409;-62
2023/03/11 07:32:08;;;;;;;3.20;0.65;;;2.50;65.30;;;;;;4965488;28;20522;-61
2023/03/11 07:34:33;;;;;;;3.65;0.95;;;2.50;65.60;;;;;;4969171;28;20035;-62
2023/03/11 07:36:59;;;;;;;2.90;0.80;;;2.50;65.80;;;;;;4966594;28;20045;-61
2023/03/11 07:39:25;;;;;;;2.72;0.90;;;2.60;65.10;;;;;;4964967;28;20074;-61
2023/03/11 07:41:50;;;;;;;2.22;0.70;;;2.60;65.60;;;;;;4967975;28;20142;-62
2023/03/11 07:44:16;;;;;;;2.60;0.80;;;2.60;65.50;;;;;;4971620;28;20534;-63
2023/03/11 07:46:43;;;;;;;2.63;0.70;;;2.70;65.20;;;;;;4966826;28;20089;-61
2023/03/11 07:49:09;;;;;;;1.42;0.57;;;2.70;64.90;;;;;;4970227;28;20602;-61
2023/03/11 07:51:36;;;;;;;3.33;1.00;;;2.70;65.30;;;;;;4968716;28;20045;-61
2023/03/11 07:54:03;;;;;;;3.50;0.93;;;2.70;64.70;;;;;;4968384;28;20442;-60
2023/03/11 07:56:31;;;;;;;2.55;0.70;;;2.80;64.90;;;;;;4965097;28;20274;-61
2023/03/11 07:58:58;;;;;;;2.65;0.90;;;2.70;64.90;;;;;;4974470;28;20046;-61
2023/03/11 08:01:26;;;;;;;2.97;1.08;;;2.70;64.80;;;;;;4969749;28;20046;-61
2023/03/11 08:03:57;;;;;;;2.45;0.80;;;2.70;65.20;;;;;;4962090;28;20523;-59
2023/03/11 08:06:30;;;;;;;0.90;0.80;;;2.80;65.00;;;;;;4962427;28;20153;-60
2023/03/11 08:08:59;;;;;;;1.23;0.68;;;2.80;65.10;;;;;;4970599;28;20031;-59
2023/03/11 08:11:25;;;;;;;3.70;1.52;;;2.80;65.40;;;;;;4967231;28;20050;-65
2023/03/11 08:13:52;;;;;;;3.47;1.05;;;2.80;65.50;;;;;;4965984;28;20506;-61
2023/03/11 08:16:20;;;;;;;1.98;1.30;;;2.90;65.10;;;;;;4967879;28;20035;-60
2023/03/11 08:18:47;;;;;;;2.67;0.95;;;2.90;65.10;;;;;;4965200;28;20045;-62
2023/03/11 08:21:16;;;;;;;3.72;1.23;;;2.90;64.60;;;;;;4962484;28;20045;-58
2023/03/11 08:23:42;;;;;;;5.90;1.77;;;2.90;64.70;;;;;;4969789;28;20145;-61
2023/03/11 08:26:10;;;;;;;2.95;1.40;;;2.90;65.30;;;;;;4968867;28;20441;-60
2023/03/11 08:28:36;;;;;;;4.57;1.17;;;3.00;65.10;;;;;;4949270;28;20063;-60
2023/03/11 08:31:02;;;;;;;4.32;0.90;;;3.00;65.30;;;;;;4969831;28;20097;-59
2023/03/11 08:33:28;;;;;;;2.55;1.20;;;3.00;65.40;;;;;;4962656;28;20057;-59
2023/03/11 08:35:54;;;;;;;2.95;1.38;;;3.10;65.40;;;;;;4971726;28;20514;-60
2023/03/11 08:38:19;;;;;;;2.63;1.25;;;3.10;65.20;;;;;;4967524;28;20043;-61
2023/03/11 08:40:45;;;;;;;4.72;1.50;;;3.10;64.90;;;;;;4967640;28;20125;-60
2023/03/11 08:43:14;;;;;;;2.75;1.27;;;3.10;64.60;;;;;;4965840;28;20038;-61
2023/03/11 08:45:41;;;;;;;3.70;0.85;;;3.10;64.50;;;;;;4970139;28;20392;-61
2023/03/11 08:48:09;;;;;;;3.03;0.85;;;3.10;64.70;;;;;;4971708;28;20122;-60
2023/03/11 08:50:35;;;;;;;4.28;1.08;;;3.10;65.00;;;;;;4969106;28;20043;-59
2023/03/11 08:53:02;;;;;;;3.42;1.10;;;3.20;65.00;;;;;;4961825;28;20050;-58
2023/03/11 08:55:28;;;;;;;2.90;0.90;;;3.20;65.10;;;;;;4948362;28;20046;-60
2023/03/11 08:57:54;;;;;;;3.25;0.98;;;3.20;65.20;;;;;;4970450;28;20030;-60
2023/03/11 09:00:21;;;;;;;4.95;1.83;;;3.20;64.80;;;;;;4968386;28;20034;-58
2023/03/11 09:02:46;;;;;;;3.50;0.90;;;3.30;65.00;;;;;;4973988;28;20561;-59
2023/03/11 09:05:12;;;;;;;2.38;1.10;;;3.30;64.80;;;;;;4976664;28;20030;-57
2023/03/11 09:07:38;;;;;;;3.22;1.20;;;3.30;64.40;;;;;;4973533;28;20141;-59
2023/03/11 09:10:06;;;;;;;2.40;1.02;;;3.40;64.30;;;;;;4974949;28;20042;-59
2023/03/11 09:12:32;;;;;;;3.40;1.55;;;3.40;64.30;;;;;;4971125;28;20466;-60
2023/03/11 09:14:58;;;;;;;3.58;1.08;;;3.40;63.10;;;;;;4977739;28;20565;-57
2023/03/11 09:17:23;;;;;;;2.03;1.10;;;3.50;63.70;;;;;;4959684;28;20039;-62
2023/03/11 09:19:49;;;;;;;2.25;1.27;;;3.50;63.80;;;;;;4974967;28;20042;-61
2023/03/11 09:22:15;;;;;;;3.13;1.05;;;3.60;63.80;;;;;;4974419;28;21162;-61
2023/03/11 09:24:40;;;;;;;3.55;1.10;;;3.60;63.90;;;;;;4976434;28;20117;-61
2023/03/11 09:27:06;;;;;;;2.88;1.35;;;3.70;63.80;;;;;;4974782;28;20043;-62
2023/03/11 09:29:31;;;;;;;1.98;0.90;;;3.80;63.70;;;;;;4973870;28;20206;-61
2023/03/11 09:31:57;;;;;;;1.63;0.77;;;3.80;63.70;;;;;;4975116;28;20105;-61
2023/03/11 09:34:23;;;;;;;5.25;0.85;;;3.90;62.30;;;;;;4975048;28;20042;-59
2023/03/11 09:36:49;;;;;;;2.60;1.27;;;3.90;61.80;;;;;;4975111;28;20034;-61
2023/03/11 09:39:14;;;;;;;1.90;0.80;;;4.00;61.90;;;;;;4972104;28;20565;-62
2023/03/11 09:41:45;;;;;;;1.55;0.70;;;4.00;61.30;;;;;;4976861;28;20050;-60
2023/03/11 09:44:17;;;;;;;1.13;0.70;;;4.10;61.20;;;;;;4975455;28;20046;-62
2023/03/11 09:47:09;;;;;;;1.38;0.63;;;4.10;59.80;;;;;;4973837;28;20502;-62
2023/03/11 09:49:53;;;;;;;2.35;0.93;;;4.10;60.00;;;;;;4973530;28;20093;-61
2023/03/11 09:52:31;;;;;;;1.95;0.85;;;4.10;59.60;;;;;;4978028;28;20035;-60
2023/03/11 09:55:00;;;;;;;2.65;1.00;;;4.20;59.70;;;;;;4974965;28;20109;-61
2023/03/11 09:57:32;;;;;;;5.03;1.08;;;4.20;60.10;;;;;;4949430;28;20033;-61
2023/03/11 10:00:02;;;;;;;3.28;0.85;;;4.20;60.90;;;;;;4963648;28;20137;-61
2023/03/11 10:02:29;;;;;;;1.92;0.90;;;4.30;61.40;;;;;;4973318;28;20030;-60
2023/03/11 10:04:55;;;;;;;3.08;0.82;;;4.30;61.20;;;;;;4972114;28;20046;-61
2023/03/11 10:07:26;;;;;;;3.70;0.85;;;4.40;61.00;;;;;;4975645;28;20118;-61
2023/03/11 10:09:55;;;;;;;2.30;0.98;;;4.50;60.50;;;;;;4974994;28;20069;-61
2023/03/11 10:12:54;;;;;;;2.53;0.80;;;4.50;59.80;;;;;;4970515;28;20085;-58
2023/03/11 10:15:23;;;;;;;1.90;0.77;;;4.50;59.60;;;;;;4973274;28;20133;-59
2023/03/11 10:18:33;;;;;;;1.92;0.80;;;4.50;59.40;;;;;;4975361;28;20050;-61
2023/03/11 10:21:03;;;;;;;2.67;0.98;;;4.50;59.20;;;;;;4960134;28;20094;-60
2023/03/11 10:23:59;;;;;;;2.22;0.93;;;4.50;59.90;;;;;;4975906;28;20537;-60
2023/03/11 10:26:36;;;;;;;0.73;0.70;;;4.50;59.10;;;;;;4973426;28;20038;-61
2023/03/11 10:29:31;;;;;;;3.38;1.30;;;4.50;58.90;;;;;;4973609;28;20061;-59
2023/03/11 10:32:20;;;;;;;1.77;0.70;;;4.50;59.50;;;;;;4974963;28;20053;-60
2023/03/11 10:35:03;;;;;;;2.05;0.90;;;4.50;59.30;;;;;;4974739;28;20023;-60
2023/03/11 10:37:41;;;;;;;2.25;1.23;;;4.50;59.70;;;;;;4972520;28;20042;-58
2023/03/11 10:40:28;;;;;;;2.50;0.85;;;4.50;59.90;;;;;;4973712;28;20086;-59
2023/03/11 10:42:57;;;;;;;1.13;0.60;;;4.60;59.00;;;;;;4973387;28;20046;-59
2023/03/11 10:45:24;;;;;;;2.50;0.82;;;4.60;59.70;;;;;;4973731;28;20082;-60
2023/03/11 10:47:50;;;;;;;2.30;0.90;;;4.70;59.50;;;;;;4971870;28;20034;-59
2023/03/11 10:50:17;;;;;;;1.73;0.80;;;4.70;59.40;;;;;;4972763;28;20070;-61
2023/03/11 10:53:09;;;;;;;2.53;0.90;;;4.80;59.10;;;;;;4973687;28;20042;-60
2023/03/11 10:55:44;;;;;;;3.03;1.17;;;4.80;58.60;;;;;;4971856;28;20069;-56
2023/03/11 10:58:17;;;;;;;5.60;2.20;;;4.80;59.60;;;;;;4974024;28;20506;-59
2023/03/11 11:00:43;;;;;;;14.07;7.35;;;4.90;59.70;;;;;;4969651;28;20453;-59
2023/03/11 11:03:27;;;;;;;1.45;1.08;;;5.00;60.20;;;;;;4976107;28;20039;-60
2023/03/11 11:05:58;;;;;;;1.53;0.87;;;5.10;58.50;;;;;;4977680;28;20402;-58
2023/03/11 11:08:23;;;;;;;3.63;2.20;;;5.20;58.50;;;;;;4977575;28;20274;-59
2023/03/11 11:10:55;;;;;;;2.47;1.00;;;5.20;59.00;;;;;;4972882;28;20093;-60
2023/03/11 11:13:34;;;;;;;2.08;0.95;;;5.20;58.70;;;;;;4977399;28;20524;-60
2023/03/11 11:16:19;;;;;;;1.70;0.90;;;5.20;58.50;;;;;;4977565;28;20157;-61
2023/03/11 11:18:48;;;;;;;1.77;0.80;;;5.20;58.60;;;;;;4978455;28;20116;-59
2023/03/11 11:21:26;;;;;;;2.20;0.80;;;5.30;57.70;;;;;;4977116;28;20097;-60
2023/03/11 11:24:11;;;;;;;4.20;2.42;;;5.30;57.70;;;;;;4977933;28;20039;-59
2023/03/11 11:26:36;;;;;;;2.85;1.35;;;5.30;58.20;;;;;;4977735;28;20035;-59
2023/03/11 11:29:04;;;;;;;2.08;1.33;;;5.40;59.00;;;;;;4978617;28;20045;-57
2023/03/11 11:31:30;;;;;;;1.10;0.80;;;5.40;59.20;;;;;;4976972;28;20053;-59
2023/03/11 11:33:56;;;;;;;1.05;0.85;;;5.50;59.60;;;;;;4972618;28;20514;-60
2023/03/11 11:36:27;;;;;;;2.60;1.33;;;5.60;59.60;;;;;;4972934;28;20156;-60
2023/03/11 11:38:53;;;;;;;3.17;1.10;;;5.60;58.90;;;;;;4972429;28;20528;-59
2023/03/11 11:41:24;;;;;;;2.13;1.00;;;5.70;59.30;;;;;;4977926;28;20089;-59
2023/03/11 11:43:53;;;;;;;1.70;0.82;;;5.70;59.00;;;;;;4976120;28;20102;-58
2023/03/11 11:46:21;;;;;;;1.70;0.90;;;5.70;58.20;;;;;;4975371;28;20046;-59
2023/03/11 11:49:17;;;;;;;1.35;0.70;;;5.80;58.30;;;;;;4978544;28;20065;-59
2023/03/11 11:51:47;;;;;;;5.25;0.98;;;5.80;57.40;;;;;;4977059;28;20031;-59
2023/03/11 11:54:18;;;;;;;2.83;1.00;;;5.80;56.50;;;;;;4977143;28;20077;-59
2023/03/11 11:56:44;;;;;;;1.75;0.82;;;5.80;55.60;;;;;;4971263;28;20056;-59
2023/03/11 11:59:20;;;;;;;2.00;0.80;;;5.80;56.60;;;;;;4975350;28;20510;-61
2023/03/11 12:02:07;;;;;;;1.77;0.80;;;5.80;57.30;;;;;;4978509;28;20220;-60
2023/03/11 12:04:33;;;;;;;1.25;0.60;;;5.80;57.00;;;;;;4975883;28;20244;-60
2023/03/11 12:07:13;;;;;;;2.60;0.85;;;5.80;57.90;;;;;;4977108;28;20494;-58
2023/03/11 12:09:57;;;;;;;1.42;0.90;;;5.90;56.70;;;;;;4974278;28;20424;-58
2023/03/11 12:12:28;;;;;;;1.92;0.90;;;5.90;56.10;;;;;;4967641;28;20031;-60
2023/03/11 12:15:06;;;;;;;2.25;0.80;;;5.90;56.60;;;;;;4974490;28;20034;-60
2023/03/11 12:17:34;;;;;;;3.40;1.00;;;6.00;57.50;;;;;;4975903;28;20511;-61
2023/03/11 12:20:08;;;;;;;1.48;0.80;;;6.00;56.80;;;;;;4945814;28;20116;-59
2023/03/11 12:22:33;;;;;;;1.10;0.70;;;6.10;56.70;;;;;;4971535;28;20529;-60
2023/03/11 12:25:07;;;;;;;2.10;0.90;;;6.10;56.90;;;;;;4975881;28;20042;-58
2023/03/11 12:27:42;;;;;;;2.00;0.97;;;6.10;56.20;;;;;;4976074;28;20380;-60
2023/03/11 12:30:20;;;;;;;2.78;0.80;;;6.10;55.60;;;;;;4976433;28;20101;-59
2023/03/11 12:33:02;;;;;;;2.65;1.20;;;6.10;55.60;;;;;;4972145;28;20041;-58
2023/03/11 12:35:33;;;;;;;2.00;0.90;;;6.10;56.10;;;;;;4978013;28;20117;-60
2023/03/11 12:38:19;;;;;;;1.60;0.80;;;6.20;57.20;;;;;;4977791;28;20042;-60
2023/03/11 12:40:47;;;;;;;1.73;0.88;;;6.20;55.90;;;;;;4972815;28;20655;-60
2023/03/11 12:43:34;;;;;;;1.27;0.90;;;6.30;55.20;;;;;;4977411;28;20030;-61
2023/03/11 12:46:04;;;;;;;1.55;0.80;;;6.30;55.70;;;;;;4976300;28;20037;-60
2023/03/11 12:48:46;;;;;;;1.55;0.90;;;6.30;56.40;;;;;;4975243;28;20038;-59
2023/03/11 12:51:38;;;;;;;0.95;0.85;;;6.30;55.90;;;;;;4976943;28;20043;-61
2023/03/11 12:54:29;;;;;;;3.10;1.00;;;6.30;55.50;;;;;;4973522;28;20061;-60
2023/03/11 12:57:01;;;;;;;1.17;0.80;;;6.40;55.70;;;;;;4973124;28;20058;-60
2023/03/11 12:59:48;;;;;;;2.25;1.00;;;6.40;56.00;;;;;;4976107;28;20470;-60
2023/03/11 13:02:46;;;;;;;2.30;0.77;;;6.50;55.70;;;;;;4976297;28;20049;-60
2023/03/11 13:05:48;;;;;;;2.03;0.75;;;6.50;54.70;;;;;;4976106;28;20038;-59
2023/03/11 13:08:27;;;;;;;1.83;0.90;;;6.50;55.00;;;;;;4975938;28;20037;-61